Time;durP1;ratioP1;P1;durP2;ratioP2;P2;SDS_P1;SDS_P2;PMS_P1;PMS_P2;Temp;Humidity;BMP_temperature;BMP_pressure;BME280_temperature;BME280_humidity;BME280_pressure;Samples;Min_cycle;Max_cycle;Signal;HPM_P1;HPM_P2
2021/08/29 00:00:10;;;;;;;8.90;6.05;;;;;;;;;;5052009;28;20421;-78
2021/08/29 00:02:55;;;;;;;7.70;6.20;;;;;;;;;;5052281;28;20393;-78
2021/08/29 00:05:40;;;;;;;8.05;6.45;;;;;;;;;;5066168;28;20043;-78
2021/08/29 00:08:24;;;;;;;7.20;6.25;;;;;;;;;;5052210;28;20043;-78
2021/08/29 00:11:09;;;;;;;8.85;6.50;;;;;;;;;;5066247;28;20471;-77
2021/08/29 00:13:54;;;;;;;8.70;6.25;;;;;;;;;;5052185;28;20101;-77
2021/08/29 00:16:38;;;;;;;7.78;6.65;;;;;;;;;;5066214;28;20082;-78
2021/08/29 00:19:23;;;;;;;7.88;6.45;;;;;;;;;;5052020;28;20086;-76
2021/08/29 00:22:07;;;;;;;9.38;6.68;;;;;;;;;;5052367;28;20063;-78
2021/08/29 00:24:52;;;;;;;8.63;6.90;;;;;;;;;;5069690;28;20536;-78
2021/08/29 00:27:36;;;;;;;8.15;6.68;;;;;;;;;;5056337;28;20073;-77
2021/08/29 00:30:21;;;;;;;8.40;6.75;;;;;;;;;;5070119;28;20492;-79
2021/08/29 00:33:05;;;;;;;10.65;7.47;;;;;;;;;;5055896;28;20043;-78
2021/08/29 00:35:50;;;;;;;7.57;6.25;;;;;;;;;;5070112;28;20043;-78
2021/08/29 00:38:34;;;;;;;9.70;7.10;;;;;;;;;;5055755;28;20094;-78
2021/08/29 00:41:19;;;;;;;9.88;7.63;;;;;;;;;;5070082;28;20051;-78
2021/08/29 00:44:03;;;;;;;9.77;6.82;;;;;;;;;;5055752;28;20094;-78
2021/08/29 00:46:48;;;;;;;8.52;6.90;;;;;;;;;;5069865;28;20139;-78
2021/08/29 00:49:37;;;;;;;10.10;7.22;;;;;;;;;;5069762;28;20524;-77
2021/08/29 00:52:21;;;;;;;10.13;7.28;;;;;;;;;;5055723;28;20098;-77
2021/08/29 00:55:06;;;;;;;9.40;7.43;;;;;;;;;;5069520;28;20036;-77
2021/08/29 00:57:51;;;;;;;9.43;7.30;;;;;;;;;;5055660;28;20078;-76
2021/08/29 01:00:42;;;;;;;9.15;7.15;;;;;;;;;;5070691;28;20563;-77
2021/08/29 01:03:27;;;;;;;10.77;7.63;;;;;;;;;;5055424;28;20051;-78
2021/08/29 01:06:24;;;;;;;9.23;7.72;;;;;;;;;;5055405;28;20839;-78
2021/08/29 01:09:09;;;;;;;10.45;7.57;;;;;;;;;;5069346;28;20101;-77
2021/08/29 01:11:53;;;;;;;10.02;7.60;;;;;;;;;;5069252;28;20626;-78
2021/08/29 01:14:38;;;;;;;10.75;7.32;;;;;;;;;;5069429;28;20039;-78
2021/08/29 01:17:26;;;;;;;8.95;7.32;;;;;;;;;;5055331;28;20120;-78
2021/08/29 01:20:14;;;;;;;8.77;7.38;;;;;;;;;;5068646;28;20039;-76
2021/08/29 01:22:58;;;;;;;9.80;7.60;;;;;;;;;;5068746;28;20101;-76
2021/08/29 01:25:45;;;;;;;10.02;7.53;;;;;;;;;;5069773;28;20510;-77
2021/08/29 01:28:48;;;;;;;10.40;7.68;;;;;;;;;;5068772;28;20097;-77
2021/08/29 01:31:33;;;;;;;9.13;7.53;;;;;;;;;;5069822;28;20521;-78
2021/08/29 01:34:18;;;;;;;8.77;7.20;;;;;;;;;;5069594;28;20052;-77
2021/08/29 01:37:03;;;;;;;10.18;7.43;;;;;;;;;;5068822;28;20189;-78
2021/08/29 01:39:49;;;;;;;10.05;7.75;;;;;;;;;;5068553;28;20093;-77
2021/08/29 01:42:33;;;;;;;9.48;7.18;;;;;;;;;;5069635;28;20067;-77
2021/08/29 01:45:18;;;;;;;9.20;7.03;;;;;;;;;;5068111;28;20460;-77
2021/08/29 01:48:03;;;;;;;9.40;7.47;;;;;;;;;;5070947;28;20039;-77
2021/08/29 01:50:47;;;;;;;9.35;7.25;;;;;;;;;;5070821;28;20101;-78
2021/08/29 01:53:32;;;;;;;9.35;7.43;;;;;;;;;;5070870;28;20039;-78
2021/08/29 01:56:17;;;;;;;10.88;7.13;;;;;;;;;;5071339;28;20082;-77
2021/08/29 01:59:01;;;;;;;9.30;7.10;;;;;;;;;;5070714;28;20043;-78
2021/08/29 02:01:46;;;;;;;9.30;7.05;;;;;;;;;;5071781;28;20493;-77
2021/08/29 02:04:30;;;;;;;8.75;6.93;;;;;;;;;;5070807;28;20542;-77
2021/08/29 02:07:15;;;;;;;9.18;7.40;;;;;;;;;;5070652;28;20524;-77
2021/08/29 02:10:12;;;;;;;8.85;7.30;;;;;;;;;;5071646;28;20047;-76
2021/08/29 02:13:00;;;;;;;9.77;7.32;;;;;;;;;;5070500;28;20190;-77
2021/08/29 02:15:45;;;;;;;9.10;7.10;;;;;;;;;;5070459;28;20039;-78
2021/08/29 02:18:30;;;;;;;10.30;7.45;;;;;;;;;;5070764;28;20047;-78
2021/08/29 02:21:15;;;;;;;8.25;6.97;;;;;;;;;;5071489;28;20425;-77
2021/08/29 02:24:01;;;;;;;9.40;7.20;;;;;;;;;;5070254;28;20085;-78
2021/08/29 02:26:46;;;;;;;9.98;7.82;;;;;;;;;;5071170;28;20048;-78
2021/08/29 02:29:31;;;;;;;8.02;6.93;;;;;;;;;;5070166;28;20147;-78
2021/08/29 02:32:16;;;;;;;9.60;6.82;;;;;;;;;;5071298;28;20134;-78
2021/08/29 02:35:00;;;;;;;9.57;7.10;;;;;;;;;;5069958;28;20464;-77
2021/08/29 02:37:45;;;;;;;8.32;6.95;;;;;;;;;;5071044;28;20048;-77
2021/08/29 02:40:31;;;;;;;9.30;7.43;;;;;;;;;;5069855;28;20039;-78
2021/08/29 02:43:15;;;;;;;9.20;6.78;;;;;;;;;;5070988;28;20043;-78
2021/08/29 02:46:01;;;;;;;8.73;7.35;;;;;;;;;;5055913;28;20043;-77
2021/08/29 02:48:46;;;;;;;9.82;7.18;;;;;;;;;;5069748;28;20485;-77
2021/08/29 02:51:30;;;;;;;10.38;6.93;;;;;;;;;;5069667;28;20055;-77
2021/08/29 02:54:15;;;;;;;10.77;6.65;;;;;;;;;;5069685;28;20525;-77
2021/08/29 02:56:59;;;;;;;9.73;7.20;;;;;;;;;;5070682;28;20409;-77
2021/08/29 02:59:44;;;;;;;9.63;7.05;;;;;;;;;;5069459;28;20051;-77
2021/08/29 03:02:29;;;;;;;8.50;6.78;;;;;;;;;;5069477;28;20094;-77
2021/08/29 03:05:14;;;;;;;8.32;6.78;;;;;;;;;;5070610;28;20043;-78
2021/08/29 03:07:58;;;;;;;9.18;7.00;;;;;;;;;;5070309;28;20105;-78
2021/08/29 03:10:43;;;;;;;9.45;6.90;;;;;;;;;;5070314;28;20060;-77
2021/08/29 03:13:28;;;;;;;9.77;6.60;;;;;;;;;;5069340;28;20040;-77
2021/08/29 03:16:12;;;;;;;9.82;7.03;;;;;;;;;;5069457;28;20178;-77
2021/08/29 03:18:56;;;;;;;9.50;6.57;;;;;;;;;;5069755;28;20546;-78
2021/08/29 03:21:41;;;;;;;9.00;7.05;;;;;;;;;;5055241;28;20088;-77
2021/08/29 03:24:26;;;;;;;10.38;6.80;;;;;;;;;;5069055;28;20109;-77
2021/08/29 03:27:11;;;;;;;8.48;7.03;;;;;;;;;;5069103;28;20495;-77
2021/08/29 03:29:56;;;;;;;9.32;6.55;;;;;;;;;;5068990;28;20047;-77
2021/08/29 03:32:41;;;;;;;7.35;6.57;;;;;;;;;;5070079;28;20047;-78
2021/08/29 03:35:26;;;;;;;9.10;6.95;;;;;;;;;;5069012;28;20039;-77
2021/08/29 03:38:11;;;;;;;11.00;6.65;;;;;;;;;;5054964;28;20090;-77
2021/08/29 03:40:55;;;;;;;8.48;6.65;;;;;;;;;;5070005;28;20044;-77
2021/08/29 03:43:40;;;;;;;8.80;6.40;;;;;;;;;;5070073;28;20166;-77
2021/08/29 03:46:25;;;;;;;9.30;6.25;;;;;;;;;;5070018;28;20067;-78
2021/08/29 03:49:10;;;;;;;9.10;6.70;;;;;;;;;;5068981;28;20043;-77
2021/08/29 03:51:55;;;;;;;8.88;6.78;;;;;;;;;;5069321;28;20094;-78
2021/08/29 03:54:41;;;;;;;8.27;6.70;;;;;;;;;;5068737;28;20040;-78
2021/08/29 03:57:26;;;;;;;9.38;6.80;;;;;;;;;;5069726;28;20142;-77
2021/08/29 04:00:11;;;;;;;10.13;6.57;;;;;;;;;;5068175;28;20071;-78
2021/08/29 04:02:55;;;;;;;7.88;6.30;;;;;;;;;;5069733;28;20059;-77
2021/08/29 04:05:40;;;;;;;8.00;6.53;;;;;;;;;;5069726;28;20039;-77
2021/08/29 04:08:28;;;;;;;8.50;6.60;;;;;;;;;;5068658;28;20055;-78
2021/08/29 04:11:12;;;;;;;8.13;6.20;;;;;;;;;;5069645;28;20056;-77
2021/08/29 04:13:58;;;;;;;8.45;6.70;;;;;;;;;;5068536;28;20463;-77
2021/08/29 04:16:42;;;;;;;8.48;6.30;;;;;;;;;;5069622;28;20043;-77
2021/08/29 04:19:27;;;;;;;9.57;6.95;;;;;;;;;;5068837;28;20508;-77
2021/08/29 04:22:12;;;;;;;9.20;6.90;;;;;;;;;;5069537;28;20421;-78
2021/08/29 04:24:57;;;;;;;9.98;6.68;;;;;;;;;;5054400;28;20032;-77
2021/08/29 04:27:42;;;;;;;10.57;7.05;;;;;;;;;;5069403;28;20043;-78
2021/08/29 04:30:26;;;;;;;8.85;6.63;;;;;;;;;;5069426;28;20094;-77
2021/08/29 04:33:11;;;;;;;9.93;6.68;;;;;;;;;;5069643;28;20055;-77
2021/08/29 04:35:56;;;;;;;10.68;6.90;;;;;;;;;;5069348;28;20118;-77
2021/08/29 04:38:40;;;;;;;10.63;6.97;;;;;;;;;;5068261;28;20055;-77
2021/08/29 04:41:25;;;;;;;11.82;6.72;;;;;;;;;;5069350;28;20496;-77
2021/08/29 04:44:11;;;;;;;9.75;6.70;;;;;;;;;;5069351;28;20039;-77
2021/08/29 04:46:56;;;;;;;10.95;7.15;;;;;;;;;;5069261;28;20527;-78
2021/08/29 04:49:41;;;;;;;9.88;6.93;;;;;;;;;;5065691;28;20547;-77
2021/08/29 04:52:25;;;;;;;9.45;6.68;;;;;;;;;;5065837;28;20051;-77
2021/08/29 04:55:10;;;;;;;10.32;7.30;;;;;;;;;;5066990;28;20043;-77
2021/08/29 04:57:54;;;;;;;9.05;6.60;;;;;;;;;;5066636;28;20047;-78
2021/08/29 05:00:39;;;;;;;10.75;6.65;;;;;;;;;;5066678;28;20090;-75
2021/08/29 05:03:24;;;;;;;10.68;7.22;;;;;;;;;;5066855;28;20115;-77
2021/08/29 05:06:08;;;;;;;8.48;6.60;;;;;;;;;;5066683;28;20044;-77
2021/08/29 05:08:53;;;;;;;9.73;6.72;;;;;;;;;;5065601;28;20099;-77
2021/08/29 05:11:38;;;;;;;10.82;7.07;;;;;;;;;;5069085;28;20490;-77
2021/08/29 05:14:22;;;;;;;12.13;7.25;;;;;;;;;;5069323;28;20508;-77
2021/08/29 05:17:07;;;;;;;10.10;6.93;;;;;;;;;;5069315;28;20047;-77
2021/08/29 05:19:51;;;;;;;11.13;7.13;;;;;;;;;;5070615;28;20055;-77
2021/08/29 05:22:36;;;;;;;8.73;6.38;;;;;;;;;;5069102;28;20152;-77
2021/08/29 05:25:20;;;;;;;9.82;6.68;;;;;;;;;;5069274;28;20090;-77
2021/08/29 05:28:05;;;;;;;9.85;6.80;;;;;;;;;;5055006;28;20158;-77
2021/08/29 05:30:50;;;;;;;9.88;6.75;;;;;;;;;;5069197;28;20055;-77
2021/08/29 05:33:35;;;;;;;10.77;6.93;;;;;;;;;;5070700;28;20117;-77
2021/08/29 05:36:19;;;;;;;10.43;6.82;;;;;;;;;;5069613;28;20043;-77
2021/08/29 05:39:04;;;;;;;10.00;7.00;;;;;;;;;;5069662;28;20560;-77
2021/08/29 05:41:49;;;;;;;10.30;6.70;;;;;;;;;;5069585;28;20051;-76
2021/08/29 05:44:33;;;;;;;12.32;6.80;;;;;;;;;;5069321;28;20046;-77
2021/08/29 05:47:18;;;;;;;11.98;7.43;;;;;;;;;;5069416;28;20123;-77
2021/08/29 05:50:03;;;;;;;11.20;6.80;;;;;;;;;;5070291;28;20051;-77
2021/08/29 05:52:48;;;;;;;10.18;7.10;;;;;;;;;;5055519;28;20105;-77
2021/08/29 05:55:32;;;;;;;10.48;6.57;;;;;;;;;;5069234;28;20040;-76
2021/08/29 05:58:17;;;;;;;10.60;6.97;;;;;;;;;;5069949;28;20562;-78
2021/08/29 06:01:01;;;;;;;10.40;6.55;;;;;;;;;;5069906;28;20546;-77
2021/08/29 06:03:46;;;;;;;11.68;6.60;;;;;;;;;;5068603;28;20105;-77
2021/08/29 06:06:33;;;;;;;11.18;6.80;;;;;;;;;;5054297;28;20043;-77
2021/08/29 06:09:18;;;;;;;12.85;7.43;;;;;;;;;;5054812;28;20478;-77
2021/08/29 06:12:03;;;;;;;12.25;7.20;;;;;;;;;;5068365;28;20044;-76
2021/08/29 06:14:48;;;;;;;10.70;6.40;;;;;;;;;;5069670;28;20081;-77
2021/08/29 06:17:32;;;;;;;10.40;6.93;;;;;;;;;;5067874;28;20114;-77
2021/08/29 06:20:17;;;;;;;10.82;6.80;;;;;;;;;;5068334;28;20039;-77
2021/08/29 06:23:01;;;;;;;10.82;7.15;;;;;;;;;;5067880;28;20524;-78
2021/08/29 06:25:45;;;;;;;11.50;6.60;;;;;;;;;;5068096;28;20086;-77
2021/08/29 06:28:30;;;;;;;9.43;6.30;;;;;;;;;;5053794;28;20075;-75
2021/08/29 06:31:14;;;;;;;11.10;6.57;;;;;;;;;;5067732;28;20128;-76
2021/08/29 06:33:59;;;;;;;10.30;6.55;;;;;;;;;;5053710;28;20135;-77
2021/08/29 06:36:44;;;;;;;10.90;6.97;;;;;;;;;;5067768;28;20063;-74
2021/08/29 06:39:28;;;;;;;10.75;6.35;;;;;;;;;;5067782;28;20071;-77
2021/08/29 06:42:13;;;;;;;10.98;6.55;;;;;;;;;;5067785;28;20089;-77
2021/08/29 06:44:57;;;;;;;9.82;6.75;;;;;;;;;;5067492;28;20050;-76
2021/08/29 06:47:42;;;;;;;12.13;7.45;;;;;;;;;;5067789;28;20159;-78
2021/08/29 06:50:26;;;;;;;10.68;6.82;;;;;;;;;;5053505;28;20413;-78
2021/08/29 06:53:11;;;;;;;10.27;6.57;;;;;;;;;;5067479;28;20039;-77
2021/08/29 06:55:55;;;;;;;9.77;6.53;;;;;;;;;;5067848;28;20063;-77
2021/08/29 06:58:40;;;;;;;11.68;6.85;;;;;;;;;;5067397;28;20547;-77
2021/08/29 07:01:24;;;;;;;10.25;6.30;;;;;;;;;;5068378;28;20090;-77
2021/08/29 07:04:09;;;;;;;12.75;7.53;;;;;;;;;;5067500;28;20136;-74
2021/08/29 07:06:53;;;;;;;10.95;6.50;;;;;;;;;;5067336;28;20398;-77
2021/08/29 07:09:38;;;;;;;11.15;6.43;;;;;;;;;;5067178;28;20501;-77
2021/08/29 07:12:23;;;;;;;11.55;6.88;;;;;;;;;;5067462;28;20047;-77
2021/08/29 07:15:08;;;;;;;10.10;6.50;;;;;;;;;;5052943;28;20046;-77
2021/08/29 07:17:52;;;;;;;11.35;6.95;;;;;;;;;;5067024;28;20067;-77
2021/08/29 07:20:37;;;;;;;10.20;6.53;;;;;;;;;;5066892;28;20524;-77
2021/08/29 07:23:22;;;;;;;9.10;6.22;;;;;;;;;;5066989;28;20439;-77
2021/08/29 07:26:08;;;;;;;10.35;6.47;;;;;;;;;;5053148;28;20329;-77
2021/08/29 07:28:53;;;;;;;10.00;6.50;;;;;;;;;;5053459;28;20120;-77
2021/08/29 07:31:38;;;;;;;10.65;6.70;;;;;;;;;;5052618;28;20557;-79
2021/08/29 07:34:23;;;;;;;11.50;6.80;;;;;;;;;;5066994;28;20052;-77
2021/08/29 07:37:07;;;;;;;11.98;7.00;;;;;;;;;;5052499;28;20052;-76
2021/08/29 07:39:54;;;;;;;12.60;7.82;;;;;;;;;;5067774;28;20094;-77
2021/08/29 07:42:38;;;;;;;11.70;6.88;;;;;;;;;;5053104;28;20584;-78
2021/08/29 07:45:26;;;;;;;13.45;7.18;;;;;;;;;;5066514;28;20535;-77
2021/08/29 07:48:10;;;;;;;12.95;6.43;;;;;;;;;;5066599;28;20173;-77
2021/08/29 07:50:55;;;;;;;12.38;7.28;;;;;;;;;;5067499;28;20059;-76
2021/08/29 07:53:40;;;;;;;12.38;7.32;;;;;;;;;;5066529;28;20039;-77
2021/08/29 07:56:24;;;;;;;11.68;6.75;;;;;;;;;;5052422;28;20132;-78
2021/08/29 07:59:08;;;;;;;14.00;7.85;;;;;;;;;;5066416;28;20116;-77
2021/08/29 08:01:53;;;;;;;13.82;6.80;;;;;;;;;;5052292;28;20038;-76
2021/08/29 08:04:37;;;;;;;11.65;6.65;;;;;;;;;;5066880;28;20408;-76
2021/08/29 08:07:22;;;;;;;11.85;6.68;;;;;;;;;;5052359;28;20044;-77
2021/08/29 08:10:07;;;;;;;10.77;6.80;;;;;;;;;;5066258;28;20086;-77
2021/08/29 08:12:52;;;;;;;11.05;6.55;;;;;;;;;;5066295;28;20094;-77
2021/08/29 08:15:36;;;;;;;9.57;6.35;;;;;;;;;;5066449;28;20087;-77
2021/08/29 08:18:21;;;;;;;10.98;6.75;;;;;;;;;;5051971;28;20400;-78
2021/08/29 08:21:06;;;;;;;11.48;7.18;;;;;;;;;;5066906;28;20089;-77
2021/08/29 08:23:50;;;;;;;11.88;6.78;;;;;;;;;;5066832;28;20062;-77
2021/08/29 08:26:35;;;;;;;10.75;6.57;;;;;;;;;;5067299;28;20564;-77
2021/08/29 08:29:20;;;;;;;12.35;7.38;;;;;;;;;;5066758;28;20032;-77
2021/08/29 08:32:04;;;;;;;12.52;6.90;;;;;;;;;;5066848;28;20469;-77
2021/08/29 08:34:50;;;;;;;9.93;6.60;;;;;;;;;;5066911;28;20337;-76
2021/08/29 08:37:34;;;;;;;12.57;7.35;;;;;;;;;;5066641;28;20633;-77
2021/08/29 08:40:22;;;;;;;12.05;6.72;;;;;;;;;;5066823;28;20093;-77
2021/08/29 08:43:07;;;;;;;15.05;7.28;;;;;;;;;;5066938;28;20123;-77
2021/08/29 08:45:51;;;;;;;13.68;7.60;;;;;;;;;;5068057;28;20086;-77
2021/08/29 08:48:36;;;;;;;11.00;6.60;;;;;;;;;;5055767;28;20031;-77
2021/08/29 08:51:24;;;;;;;12.52;7.38;;;;;;;;;;5070550;28;20421;-78
2021/08/29 08:54:10;;;;;;;10.57;7.18;;;;;;;;;;5070336;28;20044;-77
2021/08/29 08:56:56;;;;;;;12.30;6.25;;;;;;;;;;5068938;28;20128;-77
2021/08/29 08:59:42;;;;;;;11.52;6.82;;;;;;;;;;5069867;28;20039;-74
2021/08/29 09:02:27;;;;;;;10.98;6.40;;;;;;;;;;5055560;28;20040;-77
2021/08/29 09:05:11;;;;;;;9.73;6.35;;;;;;;;;;5069706;28;20408;-77
2021/08/29 09:07:57;;;;;;;10.32;6.80;;;;;;;;;;5069583;28;20075;-78
2021/08/29 09:10:41;;;;;;;9.88;5.93;;;;;;;;;;5069487;28;20059;-77
2021/08/29 09:13:26;;;;;;;10.02;6.72;;;;;;;;;;5055250;28;20120;-77
2021/08/29 09:16:17;;;;;;;9.48;6.13;;;;;;;;;;5069271;28;20050;-78
2021/08/29 09:19:03;;;;;;;12.73;7.35;;;;;;;;;;5069808;28;20531;-77
2021/08/29 09:21:47;;;;;;;9.48;5.90;;;;;;;;;;5069382;28;20110;-77
2021/08/29 09:24:32;;;;;;;9.60;5.95;;;;;;;;;;5069426;28;20576;-77
2021/08/29 09:27:16;;;;;;;9.43;5.65;;;;;;;;;;5069256;28;20047;-77
2021/08/29 09:30:02;;;;;;;9.57;6.20;;;;;;;;;;5055094;28;20086;-77
2021/08/29 09:32:47;;;;;;;10.43;6.80;;;;;;;;;;5055065;28;20051;-77
2021/08/29 09:35:34;;;;;;;10.45;6.40;;;;;;;;;;5070116;28;20043;-77
2021/08/29 09:38:18;;;;;;;10.77;6.82;;;;;;;;;;5055396;28;20081;-77
2021/08/29 09:41:03;;;;;;;10.15;7.15;;;;;;;;;;5069922;28;20074;-77
2021/08/29 09:43:47;;;;;;;8.20;6.05;;;;;;;;;;5070229;28;20504;-77
2021/08/29 09:46:32;;;;;;;7.50;5.40;;;;;;;;;;5068965;28;20502;-77
2021/08/29 09:49:22;;;;;;;8.15;5.55;;;;;;;;;;5054681;28;20093;-78
2021/08/29 09:52:07;;;;;;;8.60;5.15;;;;;;;;;;5054642;28;20052;-77
2021/08/29 09:54:53;;;;;;;7.35;4.75;;;;;;;;;;5068610;28;20070;-77
2021/08/29 09:57:38;;;;;;;7.28;4.97;;;;;;;;;;5053979;28;20443;-78
2021/08/29 10:00:22;;;;;;;8.35;5.28;;;;;;;;;;5068483;28;20412;-77
2021/08/29 10:03:07;;;;;;;7.50;4.95;;;;;;;;;;5054443;28;20071;-77
2021/08/29 10:06:11;;;;;;;7.15;4.75;;;;;;;;;;5068788;28;20047;-78
2021/08/29 10:09:00;;;;;;;6.30;4.63;;;;;;;;;;5067861;28;20039;-75
2021/08/29 10:11:45;;;;;;;6.40;4.88;;;;;;;;;;5069613;28;20417;-77
2021/08/29 10:14:33;;;;;;;7.13;4.93;;;;;;;;;;5069318;28;20102;-76
2021/08/29 10:17:17;;;;;;;6.18;4.85;;;;;;;;;;5068278;28;20504;-78
2021/08/29 10:20:02;;;;;;;6.43;4.68;;;;;;;;;;5054216;28;20035;-77
2021/08/29 10:22:47;;;;;;;6.57;4.95;;;;;;;;;;5053935;28;20540;-77
2021/08/29 10:25:32;;;;;;;6.47;4.82;;;;;;;;;;5054121;28;20039;-77
2021/08/29 10:28:16;;;;;;;6.20;4.70;;;;;;;;;;5067953;28;20046;-76
2021/08/29 10:31:01;;;;;;;6.90;4.82;;;;;;;;;;5067877;28;20083;-78
2021/08/29 10:33:49;;;;;;;6.07;4.63;;;;;;;;;;5067894;28;20071;-77
2021/08/29 10:36:35;;;;;;;6.32;4.65;;;;;;;;;;5067975;28;20170;-77
2021/08/29 10:39:19;;;;;;;5.97;4.30;;;;;;;;;;5053746;28;20040;-76
2021/08/29 10:42:04;;;;;;;6.30;4.75;;;;;;;;;;5067782;28;20520;-77
2021/08/29 10:44:48;;;;;;;5.88;4.55;;;;;;;;;;5053748;28;20523;-77
2021/08/29 10:47:33;;;;;;;5.72;4.40;;;;;;;;;;5067686;28;20043;-77
2021/08/29 10:50:18;;;;;;;6.03;4.70;;;;;;;;;;5053398;28;20086;-76
2021/08/29 10:53:23;;;;;;;6.13;4.60;;;;;;;;;;5067677;28;20035;-78
2021/08/29 10:56:17;;;;;;;8.60;4.50;;;;;;;;;;5067605;28;20090;-76
2021/08/29 10:59:08;;;;;;;6.03;4.45;;;;;;;;;;5067408;28;20078;-77
2021/08/29 11:02:09;;;;;;;5.65;4.22;;;;;;;;;;5067599;28;20456;-77
2021/08/29 11:04:54;;;;;;;5.13;4.13;;;;;;;;;;5053553;28;20504;-77
2021/08/29 11:07:39;;;;;;;6.18;4.38;;;;;;;;;;5067005;28;20074;-77
2021/08/29 11:10:39;;;;;;;5.85;4.43;;;;;;;;;;5067329;28;20047;-78
2021/08/29 11:13:33;;;;;;;6.05;4.25;;;;;;;;;;5068284;28;20071;-78
2021/08/29 11:16:18;;;;;;;6.05;4.22;;;;;;;;;;5068249;28;20531;-77
2021/08/29 11:19:03;;;;;;;5.63;4.07;;;;;;;;;;5053467;28;20044;-77
2021/08/29 11:21:53;;;;;;;5.57;4.25;;;;;;;;;;5068078;28;20086;-77
2021/08/29 11:24:58;;;;;;;5.82;3.83;;;;;;;;;;5067130;28;20405;-78
2021/08/29 11:27:44;;;;;;;5.25;4.00;;;;;;;;;;5052943;28;20047;-77
2021/08/29 11:30:38;;;;;;;5.97;4.20;;;;;;;;;;5066779;28;20090;-77
2021/08/29 11:33:24;;;;;;;5.05;4.00;;;;;;;;;;5067142;28;20082;-77
2021/08/29 11:36:11;;;;;;;5.57;4.13;;;;;;;;;;5066682;28;20120;-77
2021/08/29 11:38:57;;;;;;;4.53;3.80;;;;;;;;;;5066781;28;20039;-77
2021/08/29 11:41:42;;;;;;;5.43;4.10;;;;;;;;;;5066919;28;20063;-77
2021/08/29 11:44:34;;;;;;;5.03;3.90;;;;;;;;;;5052661;28;20044;-77
2021/08/29 11:47:19;;;;;;;4.55;3.80;;;;;;;;;;5066487;28;20119;-77
2021/08/29 11:50:04;;;;;;;5.43;3.95;;;;;;;;;;5066454;28;20043;-77
2021/08/29 11:52:48;;;;;;;4.97;4.03;;;;;;;;;;5066609;28;20412;-76
2021/08/29 11:55:33;;;;;;;5.13;4.03;;;;;;;;;;5066495;28;20063;-77
2021/08/29 11:58:21;;;;;;;5.05;4.13;;;;;;;;;;5052260;28;20043;-77
2021/08/29 12:01:06;;;;;;;4.70;3.72;;;;;;;;;;5066636;28;20055;-77
2021/08/29 12:03:53;;;;;;;5.05;3.80;;;;;;;;;;5067258;28;20098;-77
2021/08/29 12:06:41;;;;;;;4.63;4.00;;;;;;;;;;5066264;28;20079;-77
2021/08/29 12:09:29;;;;;;;4.88;3.92;;;;;;;;;;5065900;28;20189;-77
2021/08/29 12:12:15;;;;;;;4.32;3.60;;;;;;;;;;5066106;28;20558;-77
2021/08/29 12:15:00;;;;;;;4.38;3.78;;;;;;;;;;5066281;28;20035;-77
2021/08/29 12:17:45;;;;;;;4.55;3.90;;;;;;;;;;5067521;28;20698;-77
2021/08/29 12:20:30;;;;;;;4.90;4.20;;;;;;;;;;5051598;28;20063;-76
2021/08/29 12:23:15;;;;;;;5.38;3.80;;;;;;;;;;5052072;28;20051;-77
2021/08/29 12:26:00;;;;;;;5.05;3.83;;;;;;;;;;5066326;28;20043;-77
2021/08/29 12:28:44;;;;;;;4.72;3.75;;;;;;;;;;5066984;28;20075;-77
2021/08/29 12:31:35;;;;;;;5.43;3.65;;;;;;;;;;5065852;28;20093;-77
2021/08/29 12:34:26;;;;;;;5.27;4.00;;;;;;;;;;5066146;28;20565;-77
2021/08/29 12:37:12;;;;;;;4.72;3.70;;;;;;;;;;5051966;28;20110;-77
2021/08/29 12:40:00;;;;;;;5.45;3.33;;;;;;;;;;5052032;28;20123;-77
2021/08/29 12:42:45;;;;;;;4.45;3.50;;;;;;;;;;5067092;28;20928;-77
2021/08/29 12:45:31;;;;;;;4.68;3.70;;;;;;;;;;5065949;28;20046;-77
2021/08/29 12:48:16;;;;;;;4.88;3.95;;;;;;;;;;5051958;28;20047;-77
2021/08/29 12:51:04;;;;;;;4.47;3.80;;;;;;;;;;5066024;28;20047;-77
2021/08/29 12:53:48;;;;;;;4.50;3.60;;;;;;;;;;5065853;28;20070;-77
2021/08/29 12:56:33;;;;;;;5.55;4.13;;;;;;;;;;5065728;28;20040;-77
2021/08/29 12:59:27;;;;;;;4.22;3.55;;;;;;;;;;5065591;28;20094;-76
2021/08/29 13:02:17;;;;;;;4.70;3.80;;;;;;;;;;5051853;28;20075;-77
2021/08/29 13:05:01;;;;;;;4.50;3.70;;;;;;;;;;5065759;28;20504;-77
2021/08/29 13:07:50;;;;;;;4.95;3.88;;;;;;;;;;5065532;28;20442;-77
2021/08/29 13:10:34;;;;;;;4.43;3.45;;;;;;;;;;5065405;28;20071;-78
2021/08/29 13:13:19;;;;;;;4.30;3.17;;;;;;;;;;5065719;28;20039;-77
2021/08/29 13:16:09;;;;;;;4.93;3.50;;;;;;;;;;5051596;28;20047;-77
2021/08/29 13:19:00;;;;;;;5.13;3.58;;;;;;;;;;5066634;28;20040;-77
2021/08/29 13:21:45;;;;;;;3.63;3.25;;;;;;;;;;5051788;28;20417;-77
2021/08/29 13:24:30;;;;;;;5.10;3.80;;;;;;;;;;5051514;28;20090;-76
2021/08/29 13:27:15;;;;;;;4.38;3.60;;;;;;;;;;5065421;28;20087;-77
2021/08/29 13:30:00;;;;;;;4.38;3.50;;;;;;;;;;5051821;28;20175;-77
2021/08/29 13:32:45;;;;;;;4.97;3.60;;;;;;;;;;5067430;28;20556;-77
2021/08/29 13:35:32;;;;;;;4.22;3.40;;;;;;;;;;5068985;28;20043;-77
2021/08/29 13:38:17;;;;;;;4.35;3.17;;;;;;;;;;5068957;28;20047;-77
2021/08/29 13:41:02;;;;;;;4.20;3.20;;;;;;;;;;5069163;28;20532;-77
2021/08/29 13:43:47;;;;;;;5.35;3.35;;;;;;;;;;5068749;28;20058;-76
2021/08/29 13:46:31;;;;;;;4.35;3.63;;;;;;;;;;5069706;28;20043;-77
2021/08/29 13:49:16;;;;;;;4.82;3.40;;;;;;;;;;5069821;28;20166;-77
2021/08/29 13:52:00;;;;;;;4.30;3.28;;;;;;;;;;5068893;28;20051;-78
2021/08/29 13:54:45;;;;;;;3.90;3.22;;;;;;;;;;5068697;28;20044;-77
2021/08/29 13:57:30;;;;;;;4.05;3.15;;;;;;;;;;5068689;28;20524;-77
2021/08/29 14:00:14;;;;;;;3.78;3.10;;;;;;;;;;5068533;28;20401;-77
2021/08/29 14:03:00;;;;;;;4.00;3.40;;;;;;;;;;5054681;28;20089;-77
2021/08/29 14:05:45;;;;;;;4.20;3.45;;;;;;;;;;5068231;28;20090;-78
2021/08/29 14:08:34;;;;;;;4.45;3.78;;;;;;;;;;5067621;28;20105;-78
2021/08/29 14:11:18;;;;;;;4.40;3.67;;;;;;;;;;5069269;28;20128;-78
2021/08/29 14:14:02;;;;;;;4.13;3.30;;;;;;;;;;5068245;28;20093;-77
2021/08/29 14:16:47;;;;;;;4.07;3.30;;;;;;;;;;5067975;28;20496;-75
2021/08/29 14:19:31;;;;;;;4.00;3.35;;;;;;;;;;5068160;28;20051;-73
2021/08/29 14:22:16;;;;;;;4.13;3.55;;;;;;;;;;5054119;28;20086;-75
2021/08/29 14:25:00;;;;;;;4.25;3.50;;;;;;;;;;5053976;28;20078;-77
2021/08/29 14:27:51;;;;;;;4.00;3.35;;;;;;;;;;5053798;28;20090;-75
2021/08/29 14:30:36;;;;;;;4.10;3.30;;;;;;;;;;5068951;28;20047;-78
2021/08/29 14:33:20;;;;;;;4.50;3.70;;;;;;;;;;5053739;28;20051;-77
2021/08/29 14:36:05;;;;;;;4.72;3.47;;;;;;;;;;5068863;28;20040;-77
2021/08/29 14:38:50;;;;;;;4.05;3.08;;;;;;;;;;5068655;28;20132;-77
2021/08/29 14:41:35;;;;;;;4.65;3.58;;;;;;;;;;5068895;28;20614;-76
2021/08/29 14:44:19;;;;;;;3.60;2.97;;;;;;;;;;5053254;28;20048;-75
2021/08/29 14:47:04;;;;;;;3.97;3.38;;;;;;;;;;5067647;28;20039;-77
2021/08/29 14:49:49;;;;;;;4.38;3.17;;;;;;;;;;5068506;28;20046;-76
2021/08/29 14:52:33;;;;;;;3.90;3.20;;;;;;;;;;5053668;28;20730;-75
2021/08/29 14:55:20;;;;;;;4.32;3.17;;;;;;;;;;5053459;28;20116;-77
2021/08/29 14:58:05;;;;;;;3.80;3.13;;;;;;;;;;5068440;28;20098;-78
2021/08/29 15:00:49;;;;;;;3.25;2.95;;;;;;;;;;5067202;28;20043;-76
2021/08/29 15:03:34;;;;;;;4.30;3.38;;;;;;;;;;5067390;28;20093;-77
2021/08/29 15:06:18;;;;;;;4.00;3.22;;;;;;;;;;5052990;28;20471;-77
2021/08/29 15:09:03;;;;;;;4.65;2.90;;;;;;;;;;5068369;28;20043;-76
2021/08/29 15:11:48;;;;;;;5.53;3.30;;;;;;;;;;5067902;28;20559;-77
2021/08/29 15:14:33;;;;;;;4.13;3.50;;;;;;;;;;5053162;28;20040;-77
2021/08/29 15:17:17;;;;;;;3.65;3.28;;;;;;;;;;5066937;28;20047;-75
2021/08/29 15:20:03;;;;;;;3.70;3.05;;;;;;;;;;5067939;28;20082;-77
2021/08/29 15:22:48;;;;;;;3.97;3.28;;;;;;;;;;5066688;28;20105;-78
2021/08/29 15:25:33;;;;;;;4.47;3.58;;;;;;;;;;5052817;28;20124;-77
2021/08/29 15:28:17;;;;;;;4.40;3.50;;;;;;;;;;5066725;28;20081;-77
2021/08/29 15:31:02;;;;;;;3.55;3.00;;;;;;;;;;5067877;28;20047;-77
2021/08/29 15:33:46;;;;;;;3.90;3.30;;;;;;;;;;5066499;28;20507;-77
2021/08/29 15:36:31;;;;;;;3.63;3.08;;;;;;;;;;5066778;28;20730;-76
2021/08/29 15:39:16;;;;;;;3.63;2.90;;;;;;;;;;5066539;28;20119;-77
2021/08/29 15:42:00;;;;;;;3.92;3.20;;;;;;;;;;5066508;28;20051;-77
2021/08/29 15:44:44;;;;;;;4.00;3.30;;;;;;;;;;5052138;28;20417;-74
2021/08/29 15:47:29;;;;;;;4.13;3.30;;;;;;;;;;5066360;28;20538;-75
2021/08/29 15:50:14;;;;;;;3.65;3.08;;;;;;;;;;5066351;28;20042;-77
2021/08/29 15:52:58;;;;;;;3.92;3.25;;;;;;;;;;5052205;28;20142;-77
2021/08/29 15:55:45;;;;;;;3.60;3.10;;;;;;;;;;5065583;28;20536;-77
2021/08/29 15:58:29;;;;;;;3.38;2.83;;;;;;;;;;5066059;28;20047;-77
2021/08/29 16:01:14;;;;;;;3.38;2.97;;;;;;;;;;5052061;28;20043;-77
2021/08/29 16:03:58;;;;;;;3.75;3.20;;;;;;;;;;5064207;28;20141;-77
2021/08/29 16:06:43;;;;;;;4.22;3.30;;;;;;;;;;5066332;28;20040;-77
2021/08/29 16:09:27;;;;;;;4.00;3.13;;;;;;;;;;5065997;28;20042;-75
2021/08/29 16:12:11;;;;;;;3.80;3.10;;;;;;;;;;5051673;28;20059;-77
2021/08/29 16:14:56;;;;;;;3.83;3.20;;;;;;;;;;5066179;28;20467;-77
2021/08/29 16:17:44;;;;;;;4.03;3.13;;;;;;;;;;5066035;28;20051;-77
2021/08/29 16:20:29;;;;;;;3.78;3.20;;;;;;;;;;5052078;28;20074;-77
2021/08/29 16:23:13;;;;;;;3.45;3.03;;;;;;;;;;5051913;28;20774;-77
2021/08/29 16:25:57;;;;;;;3.92;3.40;;;;;;;;;;5065901;28;20432;-77